createdAt,value
2023-03-25T00:00:45.135Z,7.56
2023-03-25T00:03:11.366Z,7.51
2023-03-25T00:05:39.266Z,7.48
2023-03-25T00:08:05.477Z,7.51
2023-03-25T00:10:31.696Z,7.49
2023-03-25T00:12:57.898Z,7.50
2023-03-25T00:15:24.095Z,7.46
2023-03-25T00:17:50.385Z,7.47
2023-03-25T00:20:16.630Z,7.53
2023-03-25T00:22:42.850Z,7.54
2023-03-25T00:25:09.677Z,7.46
2023-03-25T00:27:35.901Z,7.45
2023-03-25T00:30:02.150Z,7.45
2023-03-25T00:32:28.418Z,7.40
2023-03-25T00:34:54.636Z,7.39
2023-03-25T00:37:20.843Z,7.43
2023-03-25T00:39:47.125Z,7.45
2023-03-25T00:42:16.706Z,7.49
2023-03-25T00:44:42.921Z,7.52
2023-03-25T00:47:09.161Z,7.47
2023-03-25T00:49:35.366Z,7.49
2023-03-25T00:52:01.585Z,7.49
2023-03-25T00:54:27.803Z,7.58
2023-03-25T00:56:54.042Z,7.64
2023-03-25T00:59:20.266Z,7.75
2023-03-25T01:01:46.537Z,7.78
2023-03-25T01:04:12.802Z,7.80
2023-03-25T01:06:39.862Z,7.75
2023-03-25T01:09:06.444Z,7.75
2023-03-25T01:11:32.914Z,7.73
2023-03-25T01:13:59.121Z,7.71
2023-03-25T01:16:25.423Z,7.67
2023-03-25T01:18:51.679Z,7.68
2023-03-25T01:21:17.902Z,7.72
2023-03-25T01:23:44.203Z,7.68
2023-03-25T01:26:10.413Z,7.65
2023-03-25T01:28:36.614Z,7.58
2023-03-25T01:31:03.437Z,7.61
2023-03-25T01:33:29.774Z,7.62
2023-03-25T01:35:56.024Z,7.51
2023-03-25T01:38:22.281Z,7.46
2023-03-25T01:40:48.479Z,7.40
2023-03-25T01:43:14.705Z,7.36
2023-03-25T01:45:40.917Z,7.34
2023-03-25T01:48:14.725Z,7.29
2023-03-25T01:50:42.275Z,7.22
2023-03-25T01:53:08.496Z,7.14
2023-03-25T01:55:34.717Z,7.13
2023-03-25T01:58:01.619Z,7.11
2023-03-25T02:00:27.824Z,7.14
2023-03-25T02:02:54.297Z,7.14
2023-03-25T02:05:21.812Z,7.17
2023-03-25T02:07:48.299Z,7.18
2023-03-25T02:10:14.610Z,7.18
2023-03-25T02:12:40.914Z,7.16
2023-03-25T02:15:07.664Z,7.22
2023-03-25T02:17:52.266Z,7.19
2023-03-25T02:20:31.139Z,7.28
2023-03-25T02:23:13.608Z,7.29
2023-03-25T02:25:44.303Z,7.30
2023-03-25T02:28:13.518Z,7.25
2023-03-25T02:30:45.150Z,7.25
2023-03-25T02:33:11.370Z,7.24
2023-03-25T02:35:37.572Z,7.19
2023-03-25T02:38:12.638Z,7.22
2023-03-25T02:40:42.404Z,7.17
2023-03-25T02:43:13.093Z,7.25
2023-03-25T02:45:46.540Z,7.20
2023-03-25T02:48:15.130Z,7.28
2023-03-25T02:50:42.245Z,7.26
2023-03-25T02:53:10.066Z,7.31
2023-03-25T02:55:36.292Z,7.29
2023-03-25T02:58:03.321Z,7.27
2023-03-25T03:00:29.531Z,7.28
2023-03-25T03:02:56.836Z,7.32
2023-03-25T03:05:24.122Z,7.25
2023-03-25T03:07:54.993Z,7.32
2023-03-25T03:10:22.774Z,7.31
2023-03-25T03:13:08.678Z,7.33
2023-03-25T03:15:43.960Z,7.37
2023-03-25T03:18:33.207Z,7.36
2023-03-25T03:21:10.078Z,7.37
2023-03-25T03:23:37.791Z,7.38
2023-03-25T03:26:08.573Z,7.38
2023-03-25T03:28:42.927Z,7.28
2023-03-25T03:31:11.899Z,7.31
2023-03-25T03:33:52.954Z,7.30
2023-03-25T03:36:24.110Z,7.40
2023-03-25T03:38:52.871Z,7.34
2023-03-25T03:41:19.688Z,7.38
2023-03-25T03:43:50.746Z,7.37
2023-03-25T03:46:21.023Z,7.35
2023-03-25T03:48:48.074Z,7.31
2023-03-25T03:51:15.705Z,7.25
2023-03-25T03:53:47.302Z,7.27
2023-03-25T03:56:15.554Z,7.36
2023-03-25T03:58:42.111Z,7.27
2023-03-25T04:01:10.267Z,7.31
2023-03-25T04:03:38.248Z,7.26
2023-03-25T04:06:08.191Z,7.25
2023-03-25T04:08:36.859Z,7.31
2023-03-25T04:11:06.351Z,7.25
2023-03-25T04:13:33.225Z,7.41
2023-03-25T04:15:59.683Z,7.37
2023-03-25T04:18:26.100Z,7.40
2023-03-25T04:20:52.317Z,7.36
2023-03-25T04:23:18.511Z,7.36
2023-03-25T04:25:45.002Z,7.44
2023-03-25T04:28:11.195Z,7.47
2023-03-25T04:30:37.409Z,7.42
2023-03-25T04:33:03.674Z,7.40
2023-03-25T04:35:29.904Z,7.41
2023-03-25T04:37:56.104Z,7.49
2023-03-25T04:40:22.307Z,7.51
2023-03-25T04:42:48.538Z,7.54
2023-03-25T04:45:14.822Z,7.53
2023-03-25T04:47:41.048Z,7.54
2023-03-25T04:50:09.048Z,7.62
2023-03-25T04:52:35.259Z,7.62
2023-03-25T04:55:01.468Z,7.67
2023-03-25T04:57:27.693Z,7.68
2023-03-25T04:59:53.919Z,7.78
2023-03-25T05:02:20.151Z,7.79
2023-03-25T05:04:46.391Z,7.80
2023-03-25T05:07:12.625Z,7.78
2023-03-25T05:09:38.825Z,7.78
2023-03-25T05:12:05.047Z,7.83
2023-03-25T05:14:31.262Z,7.86
2023-03-25T05:16:57.493Z,7.84
2023-03-25T05:19:23.697Z,7.84
2023-03-25T05:21:49.914Z,7.88
2023-03-25T05:24:16.115Z,7.84
2023-03-25T05:26:42.336Z,7.84
2023-03-25T05:29:09.376Z,7.80
2023-03-25T05:31:35.676Z,7.82
2023-03-25T05:34:01.915Z,7.85
2023-03-25T05:36:28.119Z,7.90
2023-03-25T05:38:54.665Z,7.97
2023-03-25T05:41:25.793Z,7.98
2023-03-25T05:43:52.000Z,7.98
2023-03-25T05:46:18.299Z,7.96
2023-03-25T05:48:44.687Z,7.96
2023-03-25T05:51:12.059Z,7.98
2023-03-25T05:53:38.276Z,8.00
2023-03-25T05:56:04.678Z,8.04
2023-03-25T05:58:30.905Z,8.09
2023-03-25T06:00:57.106Z,8.10
2023-03-25T06:03:23.509Z,8.17
2023-03-25T06:05:51.560Z,8.30
2023-03-25T06:08:17.885Z,8.41
2023-03-25T06:10:44.071Z,8.47
2023-03-25T06:13:10.280Z,8.58
2023-03-25T06:15:36.499Z,8.70
2023-03-25T06:18:02.756Z,8.74
2023-03-25T06:20:29.032Z,8.90
2023-03-25T06:22:55.241Z,8.92
2023-03-25T06:25:21.462Z,9.06
2023-03-25T06:27:48.142Z,9.08
2023-03-25T06:30:15.082Z,9.08
2023-03-25T06:32:41.360Z,9.03
2023-03-25T06:35:08.049Z,9.14
2023-03-25T06:37:34.361Z,9.25
2023-03-25T06:40:00.609Z,9.46
2023-03-25T06:42:27.091Z,9.48
2023-03-25T06:44:53.450Z,9.55
2023-03-25T06:47:19.663Z,9.66
2023-03-25T06:49:45.877Z,9.76
2023-03-25T06:52:12.094Z,10.20
2023-03-25T06:54:38.547Z,9.92
2023-03-25T06:57:04.876Z,9.55
2023-03-25T06:59:31.128Z,9.23
2023-03-25T07:01:57.576Z,9.08
2023-03-25T07:04:23.890Z,9.08
2023-03-25T07:06:50.094Z,9.02
2023-03-25T07:09:16.305Z,9.02
2023-03-25T07:11:42.506Z,8.99
2023-03-25T07:14:08.724Z,8.99
2023-03-25T07:16:35.096Z,8.93
2023-03-25T07:19:01.363Z,8.92
2023-03-25T07:21:27.569Z,8.91
2023-03-25T07:23:53.774Z,8.84
2023-03-25T07:26:19.976Z,8.82
2023-03-25T07:28:46.210Z,8.86
2023-03-25T07:31:12.881Z,8.84
2023-03-25T07:33:39.151Z,8.82
2023-03-25T07:36:05.626Z,8.85
2023-03-25T07:38:32.004Z,8.88
2023-03-25T07:40:58.212Z,8.70
2023-03-25T07:43:24.419Z,8.61
2023-03-25T07:45:50.635Z,8.62
2023-03-25T07:48:16.870Z,8.63
2023-03-25T07:50:43.192Z,8.63
2023-03-25T07:53:09.386Z,8.64
2023-03-25T07:55:35.599Z,8.72
2023-03-25T07:58:01.800Z,8.81
2023-03-25T08:00:28.801Z,8.91
2023-03-25T08:02:55.285Z,9.05
2023-03-25T08:05:21.587Z,9.16
2023-03-25T08:07:48.263Z,9.18
2023-03-25T08:10:14.526Z,9.34
2023-03-25T08:12:40.733Z,9.62
2023-03-25T08:15:07.308Z,10.32
2023-03-25T08:17:33.537Z,10.40
2023-03-25T08:19:59.760Z,10.60
2023-03-25T08:22:26.156Z,10.87
2023-03-25T08:24:52.417Z,10.81
2023-03-25T08:27:18.610Z,10.47
2023-03-25T08:29:45.178Z,10.37
2023-03-25T08:32:11.386Z,10.36
2023-03-25T08:34:37.599Z,10.08
2023-03-25T08:37:03.809Z,9.99
2023-03-25T08:39:30.044Z,10.32
2023-03-25T08:41:56.251Z,10.47
2023-03-25T08:44:22.441Z,10.26
2023-03-25T08:46:48.655Z,10.05
2023-03-25T08:49:14.855Z,10.41
2023-03-25T08:51:41.089Z,11.19
2023-03-25T08:54:07.312Z,11.61
2023-03-25T08:56:33.568Z,11.78
2023-03-25T08:58:59.806Z,11.93
2023-03-25T09:01:26.065Z,12.05
2023-03-25T09:03:52.292Z,12.04
2023-03-25T09:06:18.507Z,11.40
2023-03-25T09:08:44.704Z,10.95
2023-03-25T09:11:21.789Z,10.59
2023-03-25T09:13:53.413Z,10.47
2023-03-25T09:16:19.663Z,10.63
2023-03-25T09:18:45.928Z,10.65
2023-03-25T09:21:12.130Z,10.82
2023-03-25T09:23:38.334Z,10.83
2023-03-25T09:26:04.640Z,10.73
2023-03-25T09:28:30.840Z,11.42
2023-03-25T09:30:57.165Z,12.28
2023-03-25T09:33:23.366Z,12.07
2023-03-25T09:35:49.945Z,12.22
2023-03-25T09:38:16.395Z,12.56
2023-03-25T09:40:42.696Z,12.57
2023-03-25T09:43:24.348Z,12.53
2023-03-25T09:45:50.748Z,12.21
2023-03-25T09:48:28.252Z,12.24
2023-03-25T09:50:54.482Z,12.15
2023-03-25T09:53:29.080Z,11.69
2023-03-25T09:55:55.299Z,11.79
2023-03-25T09:58:21.452Z,11.57
2023-03-25T10:00:51.388Z,11.60
2023-03-25T10:03:23.549Z,12.00
2023-03-25T10:05:51.475Z,12.68
2023-03-25T10:08:26.842Z,13.20
2023-03-25T10:11:00.196Z,13.36
2023-03-25T10:13:40.579Z,12.86
2023-03-25T10:16:10.619Z,12.34
2023-03-25T10:18:45.674Z,11.69
2023-03-25T10:21:21.135Z,11.58
2023-03-25T10:24:06.022Z,11.36
2023-03-25T10:26:46.020Z,11.05
2023-03-25T10:29:19.712Z,11.42
2023-03-25T10:31:50.440Z,11.55
2023-03-25T10:34:17.512Z,11.48
2023-03-25T10:36:51.567Z,11.91
2023-03-25T10:39:18.824Z,11.71
2023-03-25T10:41:46.228Z,11.67
2023-03-25T10:44:12.439Z,11.81
2023-03-25T10:46:52.045Z,11.73
2023-03-25T10:49:18.849Z,11.75
2023-03-25T10:51:45.058Z,12.07
2023-03-25T10:54:12.188Z,12.46
2023-03-25T10:56:44.609Z,12.51
2023-03-25T10:59:23.079Z,12.30
2023-03-25T11:01:49.298Z,12.60
2023-03-25T11:04:19.215Z,12.77
2023-03-25T11:06:46.193Z,12.97
2023-03-25T11:09:24.235Z,12.77
2023-03-25T11:11:50.438Z,13.04
2023-03-25T11:14:16.702Z,12.62
2023-03-25T11:17:01.566Z,12.11
2023-03-25T11:19:28.883Z,9.90
2023-03-25T11:21:56.840Z,8.81
2023-03-25T11:24:23.056Z,8.60
2023-03-25T11:26:49.293Z,8.75
2023-03-25T11:29:16.638Z,8.74
2023-03-25T11:31:43.223Z,8.62
2023-03-25T11:34:12.491Z,8.66
2023-03-25T11:36:39.426Z,8.71
2023-03-25T11:39:18.408Z,8.78
2023-03-25T11:41:44.628Z,8.75
2023-03-25T11:44:18.620Z,8.73
2023-03-25T11:46:44.863Z,8.63
2023-03-25T11:49:11.087Z,8.56
2023-03-25T11:51:37.292Z,8.47
2023-03-25T11:54:06.214Z,8.56
2023-03-25T11:56:36.043Z,8.51
2023-03-25T11:59:02.397Z,8.53
2023-03-25T12:01:29.958Z,8.54
2023-03-25T12:04:06.115Z,8.55
2023-03-25T12:06:32.385Z,8.66
2023-03-25T12:08:59.443Z,8.80
2023-03-25T12:11:32.550Z,9.13
2023-03-25T12:14:10.975Z,9.25
2023-03-25T12:16:50.803Z,9.49
2023-03-25T12:19:16.958Z,9.49
2023-03-25T12:21:58.211Z,9.98
2023-03-25T12:24:40.693Z,10.42
2023-03-25T12:27:16.018Z,10.70
2023-03-25T12:29:57.192Z,11.04
2023-03-25T12:32:32.968Z,11.11
2023-03-25T12:35:06.528Z,11.14
2023-03-25T12:37:38.990Z,11.05
2023-03-25T12:40:24.004Z,11.27
2023-03-25T12:42:50.180Z,11.64
2023-03-25T12:45:31.937Z,11.55
2023-03-25T12:48:17.023Z,10.94
2023-03-25T12:50:55.431Z,10.78
2023-03-25T12:53:23.269Z,10.71
2023-03-25T12:55:52.336Z,10.61
2023-03-25T12:58:26.198Z,10.36
2023-03-25T13:00:55.125Z,10.27
2023-03-25T13:03:24.461Z,10.41
2023-03-25T13:05:59.253Z,10.12
2023-03-25T13:08:54.862Z,10.19
2023-03-25T13:11:22.585Z,10.23
2023-03-25T13:13:49.536Z,10.27
2023-03-25T13:16:16.948Z,10.23
2023-03-25T13:18:59.870Z,10.41
2023-03-25T13:21:27.166Z,10.29
2023-03-25T13:23:57.996Z,10.52
2023-03-25T13:26:24.408Z,10.85
2023-03-25T13:28:54.324Z,11.04
2023-03-25T13:31:20.951Z,10.95
2023-03-25T13:33:48.366Z,11.43
2023-03-25T13:36:16.362Z,11.22
2023-03-25T13:38:49.162Z,10.86
2023-03-25T13:41:23.108Z,10.58
2023-03-25T13:43:52.272Z,10.44
2023-03-25T13:46:19.819Z,10.29
2023-03-25T13:48:54.289Z,10.40
2023-03-25T13:51:20.492Z,10.40
2023-03-25T13:53:56.059Z,10.28
2023-03-25T13:56:32.637Z,10.40
2023-03-25T13:59:19.493Z,10.44
2023-03-25T14:02:02.237Z,10.35
2023-03-25T14:04:47.857Z,10.23
2023-03-25T14:07:17.197Z,10.23
2023-03-25T14:09:50.338Z,10.17
2023-03-25T14:12:21.255Z,10.08
2023-03-25T14:14:49.143Z,10.13
2023-03-25T14:17:15.643Z,10.12
2023-03-25T14:19:43.350Z,10.06
2023-03-25T14:22:20.651Z,10.09
2023-03-25T14:24:46.911Z,10.09
2023-03-25T14:27:16.096Z,10.04
2023-03-25T14:29:43.555Z,9.97
2023-03-25T14:32:09.759Z,9.87
2023-03-25T14:34:36.316Z,9.80
2023-03-25T14:37:03.019Z,9.71
2023-03-25T14:39:29.190Z,9.51
2023-03-25T14:41:59.025Z,9.41
2023-03-25T14:44:25.419Z,9.38
2023-03-25T14:46:53.211Z,9.33
2023-03-25T14:49:20.321Z,9.30
2023-03-25T14:51:48.054Z,9.20
2023-03-25T14:54:18.542Z,9.16
2023-03-25T14:56:53.691Z,8.89
2023-03-25T14:59:21.474Z,8.86
2023-03-25T15:01:47.738Z,8.93
2023-03-25T15:04:23.283Z,8.97
2023-03-25T15:06:49.491Z,8.86
2023-03-25T15:09:16.057Z,8.86
2023-03-25T15:11:43.330Z,8.94
2023-03-25T15:14:10.917Z,8.92
2023-03-25T15:16:38.134Z,8.84
2023-03-25T15:19:05.212Z,8.87
2023-03-25T15:21:31.945Z,8.83
2023-03-25T15:24:07.386Z,8.45
2023-03-25T15:26:40.104Z,8.26
2023-03-25T15:29:28.343Z,8.20
2023-03-25T15:31:58.402Z,8.18
2023-03-25T15:34:43.428Z,8.31
2023-03-25T15:37:12.630Z,8.46
2023-03-25T15:39:41.670Z,8.68
2023-03-25T15:42:11.931Z,8.75
2023-03-25T15:44:44.324Z,8.71
2023-03-25T15:47:30.813Z,8.72
2023-03-25T15:50:10.092Z,8.75
2023-03-25T15:52:55.257Z,8.77
2023-03-25T15:55:22.707Z,8.78
2023-03-25T15:57:56.181Z,8.84
2023-03-25T16:00:22.881Z,8.91
2023-03-25T16:02:49.124Z,8.84
2023-03-25T16:05:15.869Z,8.54
2023-03-25T16:07:42.193Z,8.41
2023-03-25T16:10:11.626Z,8.37
2023-03-25T16:12:37.845Z,8.33
2023-03-25T16:15:04.768Z,8.28
2023-03-25T16:17:32.604Z,8.28
2023-03-25T16:19:59.039Z,8.27
2023-03-25T16:22:25.799Z,8.32
2023-03-25T16:24:52.084Z,8.40
2023-03-25T16:27:22.491Z,8.47
2023-03-25T16:29:49.351Z,8.46
2023-03-25T16:32:22.973Z,8.40
2023-03-25T16:34:49.184Z,8.30
2023-03-25T16:37:15.407Z,8.30
2023-03-25T16:39:41.615Z,8.33
2023-03-25T16:42:24.230Z,8.34
2023-03-25T16:44:50.456Z,8.37
2023-03-25T16:47:16.668Z,8.36
2023-03-25T16:49:45.228Z,8.33
2023-03-25T16:52:12.652Z,8.30
2023-03-25T16:54:51.180Z,8.30
2023-03-25T16:57:18.599Z,8.25
2023-03-25T16:59:45.471Z,8.22
2023-03-25T17:02:25.549Z,8.15
2023-03-25T17:04:51.908Z,8.09
2023-03-25T17:07:18.124Z,8.06
2023-03-25T17:09:44.358Z,8.05
2023-03-25T17:12:11.126Z,8.04
2023-03-25T17:14:37.924Z,7.98
2023-03-25T17:17:07.883Z,7.98
2023-03-25T17:19:34.178Z,7.89
2023-03-25T17:22:13.192Z,7.84
2023-03-25T17:24:43.396Z,7.80
2023-03-25T17:27:18.333Z,7.75
2023-03-25T17:30:04.819Z,7.72
2023-03-25T17:32:34.852Z,7.75
2023-03-25T17:35:01.898Z,7.75
2023-03-25T17:37:28.104Z,7.65
2023-03-25T17:39:54.329Z,7.61
2023-03-25T17:42:24.403Z,7.50
2023-03-25T17:44:50.615Z,7.44
2023-03-25T17:47:17.101Z,7.42
2023-03-25T17:49:43.324Z,7.34
2023-03-25T17:52:09.544Z,7.29
2023-03-25T17:54:35.918Z,7.35
2023-03-25T17:57:06.484Z,7.38
2023-03-25T17:59:32.795Z,7.37
2023-03-25T18:01:59.030Z,7.37
2023-03-25T18:04:25.277Z,7.36
2023-03-25T18:06:51.586Z,7.39
2023-03-25T18:09:21.439Z,7.37
2023-03-25T18:11:48.388Z,7.41
2023-03-25T18:14:14.669Z,7.39
2023-03-25T18:16:40.935Z,7.41
2023-03-25T18:19:17.619Z,7.44
2023-03-25T18:21:44.124Z,7.49
2023-03-25T18:24:10.340Z,7.59
2023-03-25T18:26:36.595Z,7.55
2023-03-25T18:29:02.819Z,7.54
2023-03-25T18:31:29.052Z,7.56
2023-03-25T18:33:55.317Z,7.56
2023-03-25T18:36:22.126Z,7.53
2023-03-25T18:38:48.485Z,7.46
2023-03-25T18:41:14.702Z,7.46
2023-03-25T18:43:41.380Z,7.47
2023-03-25T18:46:09.983Z,7.47
2023-03-25T18:48:36.180Z,7.44
2023-03-25T18:51:02.403Z,7.37
2023-03-25T18:53:28.727Z,7.35
2023-03-25T18:55:55.484Z,7.33
2023-03-25T18:58:22.725Z,7.30
2023-03-25T19:00:49.351Z,7.31
2023-03-25T19:03:15.855Z,7.32
2023-03-25T19:05:42.474Z,7.30
2023-03-25T19:08:13.543Z,7.31
2023-03-25T19:10:42.081Z,7.31
2023-03-25T19:13:08.302Z,7.28
2023-03-25T19:15:34.602Z,7.29
2023-03-25T19:18:00.861Z,7.20
2023-03-25T19:20:28.030Z,7.19
2023-03-25T19:22:55.089Z,7.17
2023-03-25T19:25:21.303Z,7.16
2023-03-25T19:27:47.684Z,7.15
2023-03-25T19:30:15.132Z,7.19
2023-03-25T19:32:41.558Z,7.16
2023-03-25T19:35:08.105Z,7.10
2023-03-25T19:37:34.352Z,7.08
2023-03-25T19:40:04.217Z,7.05
2023-03-25T19:42:30.445Z,7.05
2023-03-25T19:44:56.684Z,7.06
2023-03-25T19:47:22.918Z,7.06
2023-03-25T19:49:49.131Z,7.09
2023-03-25T19:52:15.347Z,7.10
2023-03-25T19:54:41.608Z,7.08
2023-03-25T19:57:07.855Z,7.02
2023-03-25T19:59:34.094Z,7.02
2023-03-25T20:02:00.378Z,7.09
2023-03-25T20:04:26.606Z,7.06
2023-03-25T20:06:52.845Z,7.08
2023-03-25T20:09:19.059Z,7.04
2023-03-25T20:11:45.288Z,7.05
2023-03-25T20:14:11.582Z,7.05
2023-03-25T20:16:37.855Z,7.10
2023-03-25T20:19:04.137Z,7.04
2023-03-25T20:21:30.382Z,7.04
2023-03-25T20:23:56.617Z,7.09
2023-03-25T20:26:22.824Z,7.04
2023-03-25T20:28:49.040Z,7.05
2023-03-25T20:31:19.174Z,7.04
2023-03-25T20:33:45.705Z,7.07
2023-03-25T20:36:11.945Z,7.06
2023-03-25T20:38:42.010Z,7.03
2023-03-25T20:41:13.616Z,7.01
2023-03-25T20:43:39.827Z,7.00
2023-03-25T20:46:06.047Z,6.99
2023-03-25T20:48:32.282Z,6.97
2023-03-25T20:50:59.325Z,6.96
2023-03-25T20:53:25.651Z,6.97
2023-03-25T20:55:52.225Z,6.98
2023-03-25T20:58:18.630Z,7.00
2023-03-25T21:00:44.844Z,7.01
2023-03-25T21:03:11.115Z,7.01
2023-03-25T21:05:39.190Z,7.03
2023-03-25T21:08:05.395Z,7.01
2023-03-25T21:10:31.603Z,7.02
2023-03-25T21:12:57.796Z,7.05
2023-03-25T21:15:24.021Z,7.05
2023-03-25T21:17:50.264Z,7.04
2023-03-25T21:20:16.534Z,7.02
2023-03-25T21:22:43.655Z,7.01
2023-03-25T21:25:10.604Z,7.04
2023-03-25T21:27:39.463Z,7.06
2023-03-25T21:30:07.090Z,7.07
2023-03-25T21:32:33.332Z,7.10
2023-03-25T21:34:59.565Z,7.10
2023-03-25T21:37:25.770Z,7.11
2023-03-25T21:39:51.987Z,7.10
2023-03-25T21:42:18.191Z,7.09
2023-03-25T21:44:44.402Z,7.06
2023-03-25T21:47:10.602Z,7.08
2023-03-25T21:49:36.823Z,7.04
2023-03-25T21:52:03.033Z,7.05
2023-03-25T21:54:29.255Z,7.07
2023-03-25T21:56:55.521Z,7.08
2023-03-25T21:59:21.829Z,7.10
2023-03-25T22:01:48.039Z,7.11
2023-03-25T22:04:14.269Z,7.14
2023-03-25T22:06:40.504Z,7.13
2023-03-25T22:09:06.755Z,7.13
2023-03-25T22:11:33.271Z,7.12
2023-03-25T22:13:59.476Z,7.12
2023-03-25T22:16:25.870Z,7.13
2023-03-25T22:18:52.251Z,7.15
2023-03-25T22:21:19.336Z,7.16
2023-03-25T22:23:46.003Z,7.16
2023-03-25T22:26:12.422Z,7.16
2023-03-25T22:28:39.243Z,7.15
2023-03-25T22:31:12.792Z,7.19
2023-03-25T22:33:39.098Z,7.15
2023-03-25T22:36:06.060Z,7.15
2023-03-25T22:38:33.037Z,7.15
2023-03-25T22:41:03.243Z,7.20
2023-03-25T22:43:29.472Z,7.22
2023-03-25T22:45:56.065Z,7.19
2023-03-25T22:48:22.526Z,7.21
2023-03-25T22:50:48.803Z,7.21
2023-03-25T22:53:15.002Z,7.21
2023-03-25T22:55:41.217Z,7.23
2023-03-25T22:58:07.425Z,7.21
2023-03-25T23:00:33.651Z,7.22
2023-03-25T23:02:59.879Z,7.21
2023-03-25T23:05:26.219Z,7.20
2023-03-25T23:07:52.426Z,7.17
2023-03-25T23:10:18.664Z,7.20
2023-03-25T23:12:44.879Z,7.22
2023-03-25T23:15:11.142Z,7.20
2023-03-25T23:17:37.398Z,7.19
2023-03-25T23:20:03.700Z,7.19
2023-03-25T23:22:30.055Z,7.19
2023-03-25T23:24:56.251Z,7.18
2023-03-25T23:27:22.470Z,7.16
2023-03-25T23:29:48.675Z,7.14
2023-03-25T23:32:14.887Z,7.11
2023-03-25T23:34:41.098Z,7.07
2023-03-25T23:37:07.305Z,7.08
2023-03-25T23:39:33.540Z,7.06
2023-03-25T23:41:59.763Z,7.03
2023-03-25T23:44:26.000Z,7.04
2023-03-25T23:46:52.282Z,7.03
2023-03-25T23:49:18.482Z,7.06
2023-03-25T23:51:44.698Z,7.05
2023-03-25T23:54:11.436Z,7.12
2023-03-25T23:56:37.692Z,7.08
2023-03-25T23:59:04.238Z,7.09
